sensor_id;sensor_type;location;lat;lon;timestamp;P1;durP1;ratioP1;P2;durP2;ratioP2
62535;SDS011;63050;47.514;18.920;2022-09-09T00:03:35;2.00;;;0.90;;
62535;SDS011;63050;47.514;18.920;2022-09-09T00:09:04;4.90;;;0.90;;
62535;SDS011;63050;47.514;18.920;2022-09-09T00:14:13;1.20;;;0.90;;
62535;SDS011;63050;47.514;18.920;2022-09-09T00:19:23;1.20;;;0.90;;
62535;SDS011;63050;47.514;18.920;2022-09-09T00:24:31;2.60;;;1.10;;
62535;SDS011;63050;47.514;18.920;2022-09-09T00:34:51;1.50;;;1.00;;
62535;SDS011;63050;47.514;18.920;2022-09-09T00:39:55;1.70;;;1.00;;
62535;SDS011;63050;47.514;18.920;2022-09-09T00:45:27;1.60;;;1.00;;
62535;SDS011;63050;47.514;18.920;2022-09-09T00:50:57;3.00;;;1.20;;
62535;SDS011;63050;47.514;18.920;2022-09-09T00:56:12;2.70;;;1.10;;
62535;SDS011;63050;47.514;18.920;2022-09-09T01:01:15;2.60;;;1.20;;
62535;SDS011;63050;47.514;18.920;2022-09-09T01:27:47;2.80;;;1.20;;
62535;SDS011;63050;47.514;18.920;2022-09-09T01:32:50;2.60;;;1.50;;
62535;SDS011;63050;47.514;18.920;2022-09-09T01:37:53;4.60;;;2.80;;
62535;SDS011;63050;47.514;18.920;2022-09-09T01:42:54;4.70;;;2.70;;
62535;SDS011;63050;47.514;18.920;2022-09-09T01:47:56;3.10;;;2.40;;
62535;SDS011;63050;47.514;18.920;2022-09-09T01:53:17;3.50;;;2.20;;
62535;SDS011;63050;47.514;18.920;2022-09-09T02:03:30;3.30;;;1.70;;
62535;SDS011;63050;47.514;18.920;2022-09-09T02:13:47;3.60;;;1.40;;
62535;SDS011;63050;47.514;18.920;2022-09-09T02:24:04;2.80;;;1.40;;
62535;SDS011;63050;47.514;18.920;2022-09-09T02:29:13;1.70;;;1.00;;
62535;SDS011;63050;47.514;18.920;2022-09-09T02:34:17;1.30;;;0.80;;
62535;SDS011;63050;47.514;18.920;2022-09-09T02:39:18;0.90;;;0.70;;
62535;SDS011;63050;47.514;18.920;2022-09-09T02:44:21;1.90;;;0.70;;
62535;SDS011;63050;47.514;18.920;2022-09-09T02:54:47;0.80;;;0.50;;
62535;SDS011;63050;47.514;18.920;2022-09-09T02:59:49;1.20;;;0.90;;
62535;SDS011;63050;47.514;18.920;2022-09-09T03:04:53;0.90;;;0.60;;
62535;SDS011;63050;47.514;18.920;2022-09-09T03:09:54;2.10;;;0.70;;
62535;SDS011;63050;47.514;18.920;2022-09-09T03:14:57;3.00;;;1.00;;
62535;SDS011;63050;47.514;18.920;2022-09-09T03:19:58;1.50;;;0.80;;
62535;SDS011;63050;47.514;18.920;2022-09-09T03:25:00;7.10;;;3.60;;
62535;SDS011;63050;47.514;18.920;2022-09-09T03:30:02;6.80;;;5.00;;
62535;SDS011;63050;47.514;18.920;2022-09-09T03:35:04;7.00;;;5.40;;
62535;SDS011;63050;47.514;18.920;2022-09-09T03:40:06;6.80;;;4.40;;
62535;SDS011;63050;47.514;18.920;2022-09-09T03:45:09;2.40;;;1.50;;
62535;SDS011;63050;47.514;18.920;2022-09-09T03:50:11;2.70;;;1.50;;
62535;SDS011;63050;47.514;18.920;2022-09-09T03:55:16;1.60;;;1.20;;
62535;SDS011;63050;47.514;18.920;2022-09-09T04:00:18;1.60;;;1.10;;
62535;SDS011;63050;47.514;18.920;2022-09-09T04:05:22;2.00;;;1.00;;
62535;SDS011;63050;47.514;18.920;2022-09-09T04:10:23;1.60;;;1.20;;
62535;SDS011;63050;47.514;18.920;2022-09-09T04:15:26;2.50;;;1.30;;
62535;SDS011;63050;47.514;18.920;2022-09-09T04:20:28;2.20;;;1.40;;
62535;SDS011;63050;47.514;18.920;2022-09-09T04:25:30;1.70;;;1.20;;
62535;SDS011;63050;47.514;18.920;2022-09-09T04:30:31;1.90;;;1.50;;
62535;SDS011;63050;47.514;18.920;2022-09-09T04:35:32;2.70;;;1.10;;
62535;SDS011;63050;47.514;18.920;2022-09-09T04:40:33;3.60;;;1.40;;
62535;SDS011;63050;47.514;18.920;2022-09-09T04:45:34;1.80;;;1.10;;
62535;SDS011;63050;47.514;18.920;2022-09-09T04:50:36;2.70;;;1.10;;
62535;SDS011;63050;47.514;18.920;2022-09-09T04:55:37;1.80;;;1.10;;
62535;SDS011;63050;47.514;18.920;2022-09-09T05:00:38;1.80;;;1.20;;
62535;SDS011;63050;47.514;18.920;2022-09-09T05:05:41;3.00;;;1.40;;
62535;SDS011;63050;47.514;18.920;2022-09-09T05:10:42;4.80;;;1.40;;
62535;SDS011;63050;47.514;18.920;2022-09-09T05:15:50;2.00;;;1.30;;
62535;SDS011;63050;47.514;18.920;2022-09-09T05:20:52;5.40;;;1.30;;
62535;SDS011;63050;47.514;18.920;2022-09-09T05:26:00;3.90;;;1.40;;
62535;SDS011;63050;47.514;18.920;2022-09-09T05:31:03;6.10;;;1.60;;
62535;SDS011;63050;47.514;18.920;2022-09-09T05:36:07;2.30;;;1.30;;
62535;SDS011;63050;47.514;18.920;2022-09-09T05:41:11;2.70;;;1.10;;
62535;SDS011;63050;47.514;18.920;2022-09-09T05:46:17;1.60;;;1.10;;
62535;SDS011;63050;47.514;18.920;2022-09-09T05:51:21;1.80;;;1.50;;
62535;SDS011;63050;47.514;18.920;2022-09-09T05:56:28;2.30;;;1.10;;
62535;SDS011;63050;47.514;18.920;2022-09-09T06:01:31;1.70;;;1.00;;
62535;SDS011;63050;47.514;18.920;2022-09-09T06:06:35;3.20;;;1.20;;
62535;SDS011;63050;47.514;18.920;2022-09-09T06:11:38;3.40;;;1.20;;
62535;SDS011;63050;47.514;18.920;2022-09-09T06:16:40;2.00;;;1.00;;
62535;SDS011;63050;47.514;18.920;2022-09-09T06:21:58;3.50;;;1.10;;
62535;SDS011;63050;47.514;18.920;2022-09-09T06:27:01;4.90;;;1.20;;
62535;SDS011;63050;47.514;18.920;2022-09-09T06:32:04;1.70;;;1.20;;
62535;SDS011;63050;47.514;18.920;2022-09-09T06:37:05;1.60;;;1.00;;
62535;SDS011;63050;47.514;18.920;2022-09-09T06:42:11;3.10;;;1.30;;
62535;SDS011;63050;47.514;18.920;2022-09-09T06:47:25;3.10;;;1.10;;
62535;SDS011;63050;47.514;18.920;2022-09-09T06:52:27;3.80;;;1.30;;
62535;SDS011;63050;47.514;18.920;2022-09-09T06:57:29;2.50;;;0.90;;
62535;SDS011;63050;47.514;18.920;2022-09-09T07:02:30;2.20;;;0.90;;
62535;SDS011;63050;47.514;18.920;2022-09-09T07:07:32;3.90;;;1.50;;
62535;SDS011;63050;47.514;18.920;2022-09-09T07:12:33;2.90;;;1.40;;
62535;SDS011;63050;47.514;18.920;2022-09-09T07:17:35;4.70;;;1.20;;
62535;SDS011;63050;47.514;18.920;2022-09-09T07:22:36;2.90;;;1.20;;
62535;SDS011;63050;47.514;18.920;2022-09-09T07:27:37;3.50;;;1.10;;
62535;SDS011;63050;47.514;18.920;2022-09-09T07:32:38;2.00;;;0.90;;
62535;SDS011;63050;47.514;18.920;2022-09-09T07:37:40;2.70;;;0.80;;
62535;SDS011;63050;47.514;18.920;2022-09-09T07:42:41;2.00;;;0.90;;
62535;SDS011;63050;47.514;18.920;2022-09-09T07:47:42;2.90;;;1.10;;
62535;SDS011;63050;47.514;18.920;2022-09-09T07:52:43;1.70;;;0.60;;
62535;SDS011;63050;47.514;18.920;2022-09-09T07:57:45;1.30;;;0.80;;
62535;SDS011;63050;47.514;18.920;2022-09-09T08:02:46;1.80;;;0.60;;
62535;SDS011;63050;47.514;18.920;2022-09-09T08:07:47;0.90;;;0.50;;
62535;SDS011;63050;47.514;18.920;2022-09-09T08:12:49;3.10;;;1.10;;
62535;SDS011;63050;47.514;18.920;2022-09-09T08:17:50;2.30;;;0.70;;
62535;SDS011;63050;47.514;18.920;2022-09-09T08:22:51;1.40;;;0.80;;
62535;SDS011;63050;47.514;18.920;2022-09-09T08:27:53;6.80;;;1.10;;
62535;SDS011;63050;47.514;18.920;2022-09-09T08:32:54;2.50;;;0.80;;
62535;SDS011;63050;47.514;18.920;2022-09-09T08:37:56;1.50;;;0.80;;
62535;SDS011;63050;47.514;18.920;2022-09-09T08:42:57;1.70;;;0.80;;
62535;SDS011;63050;47.514;18.920;2022-09-09T08:48:13;2.10;;;1.00;;
62535;SDS011;63050;47.514;18.920;2022-09-09T08:53:42;1.40;;;0.80;;
62535;SDS011;63050;47.514;18.920;2022-09-09T08:58:49;1.70;;;0.80;;
62535;SDS011;63050;47.514;18.920;2022-09-09T09:09:22;1.70;;;0.80;;
62535;SDS011;63050;47.514;18.920;2022-09-09T09:14:33;1.90;;;0.90;;
62535;SDS011;63050;47.514;18.920;2022-09-09T09:19:38;2.90;;;0.70;;
62535;SDS011;63050;47.514;18.920;2022-09-09T09:29:56;1.60;;;0.80;;
62535;SDS011;63050;47.514;18.920;2022-09-09T09:34:59;1.20;;;0.50;;
62535;SDS011;63050;47.514;18.920;2022-09-09T09:40:11;3.90;;;0.90;;
62535;SDS011;63050;47.514;18.920;2022-09-09T09:45:35;1.10;;;0.50;;
62535;SDS011;63050;47.514;18.920;2022-09-09T09:50:51;0.70;;;0.40;;
62535;SDS011;63050;47.514;18.920;2022-09-09T09:56:07;1.00;;;0.50;;
62535;SDS011;63050;47.514;18.920;2022-09-09T10:01:18;1.30;;;0.50;;
62535;SDS011;63050;47.514;18.920;2022-09-09T10:06:35;1.40;;;0.30;;
62535;SDS011;63050;47.514;18.920;2022-09-09T10:22:25;0.50;;;0.50;;
62535;SDS011;63050;47.514;18.920;2022-09-09T10:27:35;1.80;;;0.30;;
62535;SDS011;63050;47.514;18.920;2022-09-09T10:32:49;2.10;;;0.40;;
62535;SDS011;63050;47.514;18.920;2022-09-09T10:37:57;0.50;;;0.30;;
62535;SDS011;63050;47.514;18.920;2022-09-09T10:49:52;1.40;;;0.20;;
62535;SDS011;63050;47.514;18.920;2022-09-09T11:00:06;1.30;;;0.20;;
62535;SDS011;63050;47.514;18.920;2022-09-09T11:05:29;0.80;;;0.50;;
62535;SDS011;63050;47.514;18.920;2022-09-09T11:10:41;1.80;;;0.50;;
62535;SDS011;63050;47.514;18.920;2022-09-09T11:15:52;1.00;;;0.30;;
62535;SDS011;63050;47.514;18.920;2022-09-09T11:20:58;1.90;;;0.50;;
62535;SDS011;63050;47.514;18.920;2022-09-09T11:26:01;2.70;;;0.70;;
62535;SDS011;63050;47.514;18.920;2022-09-09T11:36:39;1.20;;;0.50;;
62535;SDS011;63050;47.514;18.920;2022-09-09T11:41:46;2.70;;;0.50;;
62535;SDS011;63050;47.514;18.920;2022-09-09T11:46:49;2.40;;;0.70;;
62535;SDS011;63050;47.514;18.920;2022-09-09T11:51:51;2.20;;;0.60;;
62535;SDS011;63050;47.514;18.920;2022-09-09T11:56:52;2.70;;;0.70;;
62535;SDS011;63050;47.514;18.920;2022-09-09T12:01:57;3.50;;;0.70;;
62535;SDS011;63050;47.514;18.920;2022-09-09T12:07:27;1.80;;;0.70;;
62535;SDS011;63050;47.514;18.920;2022-09-09T12:12:33;1.40;;;0.40;;
62535;SDS011;63050;47.514;18.920;2022-09-09T12:28:17;2.30;;;0.70;;
62535;SDS011;63050;47.514;18.920;2022-09-09T12:33:20;2.60;;;0.70;;
62535;SDS011;63050;47.514;18.920;2022-09-09T12:38:26;1.40;;;0.50;;
62535;SDS011;63050;47.514;18.920;2022-09-09T12:43:46;1.80;;;0.50;;
62535;SDS011;63050;47.514;18.920;2022-09-09T12:48:47;4.70;;;0.60;;
62535;SDS011;63050;47.514;18.920;2022-09-09T12:53:48;1.30;;;0.50;;
62535;SDS011;63050;47.514;18.920;2022-09-09T12:58:51;3.40;;;0.50;;
62535;SDS011;63050;47.514;18.920;2022-09-09T13:03:52;0.70;;;0.40;;
62535;SDS011;63050;47.514;18.920;2022-09-09T13:08:54;1.00;;;0.40;;
62535;SDS011;63050;47.514;18.920;2022-09-09T13:13:56;1.10;;;0.50;;
62535;SDS011;63050;47.514;18.920;2022-09-09T13:19:06;0.80;;;0.60;;
62535;SDS011;63050;47.514;18.920;2022-09-09T13:29:32;1.10;;;0.40;;
62535;SDS011;63050;47.514;18.920;2022-09-09T13:34:34;1.00;;;0.50;;
62535;SDS011;63050;47.514;18.920;2022-09-09T13:44:38;1.10;;;0.40;;
62535;SDS011;63050;47.514;18.920;2022-09-09T13:49:39;1.10;;;0.40;;
62535;SDS011;63050;47.514;18.920;2022-09-09T13:54:41;0.40;;;0.40;;
62535;SDS011;63050;47.514;18.920;2022-09-09T13:59:42;1.40;;;0.60;;
62535;SDS011;63050;47.514;18.920;2022-09-09T14:04:43;0.90;;;0.40;;
62535;SDS011;63050;47.514;18.920;2022-09-09T14:09:44;4.30;;;0.70;;
62535;SDS011;63050;47.514;18.920;2022-09-09T14:14:50;2.60;;;0.70;;
62535;SDS011;63050;47.514;18.920;2022-09-09T14:19:51;3.60;;;0.60;;
62535;SDS011;63050;47.514;18.920;2022-09-09T14:24:52;2.60;;;0.70;;
62535;SDS011;63050;47.514;18.920;2022-09-09T14:29:53;0.90;;;0.50;;
62535;SDS011;63050;47.514;18.920;2022-09-09T14:34:54;1.90;;;0.60;;
62535;SDS011;63050;47.514;18.920;2022-09-09T14:39:55;1.70;;;0.60;;
62535;SDS011;63050;47.514;18.920;2022-09-09T14:44:57;2.00;;;0.50;;
62535;SDS011;63050;47.514;18.920;2022-09-09T14:49:57;2.10;;;0.60;;
62535;SDS011;63050;47.514;18.920;2022-09-09T14:54:58;1.90;;;0.50;;
62535;SDS011;63050;47.514;18.920;2022-09-09T14:59:59;2.00;;;0.50;;
62535;SDS011;63050;47.514;18.920;2022-09-09T15:05:00;2.60;;;0.50;;
62535;SDS011;63050;47.514;18.920;2022-09-09T15:10:02;1.80;;;0.60;;
62535;SDS011;63050;47.514;18.920;2022-09-09T15:15:03;3.00;;;0.60;;
62535;SDS011;63050;47.514;18.920;2022-09-09T15:20:05;0.90;;;0.50;;
62535;SDS011;63050;47.514;18.920;2022-09-09T15:25:06;1.40;;;0.50;;
62535;SDS011;63050;47.514;18.920;2022-09-09T15:30:08;2.60;;;0.50;;
62535;SDS011;63050;47.514;18.920;2022-09-09T15:35:10;1.00;;;0.50;;
62535;SDS011;63050;47.514;18.920;2022-09-09T15:40:11;2.10;;;0.50;;
62535;SDS011;63050;47.514;18.920;2022-09-09T15:45:12;1.90;;;0.40;;
62535;SDS011;63050;47.514;18.920;2022-09-09T15:50:13;1.20;;;0.50;;
62535;SDS011;63050;47.514;18.920;2022-09-09T15:55:13;4.20;;;0.60;;
62535;SDS011;63050;47.514;18.920;2022-09-09T16:00:14;2.40;;;0.50;;
62535;SDS011;63050;47.514;18.920;2022-09-09T16:05:15;5.10;;;0.80;;
62535;SDS011;63050;47.514;18.920;2022-09-09T16:10:16;5.00;;;0.80;;
62535;SDS011;63050;47.514;18.920;2022-09-09T16:15:17;3.60;;;1.00;;
62535;SDS011;63050;47.514;18.920;2022-09-09T16:20:20;3.90;;;1.90;;
62535;SDS011;63050;47.514;18.920;2022-09-09T16:25:21;2.10;;;0.60;;
62535;SDS011;63050;47.514;18.920;2022-09-09T16:30:22;2.90;;;1.00;;
62535;SDS011;63050;47.514;18.920;2022-09-09T16:35:23;3.10;;;0.40;;
62535;SDS011;63050;47.514;18.920;2022-09-09T16:40:24;2.50;;;0.70;;
62535;SDS011;63050;47.514;18.920;2022-09-09T16:45:25;5.30;;;1.10;;
62535;SDS011;63050;47.514;18.920;2022-09-09T16:50:26;5.20;;;1.20;;
62535;SDS011;63050;47.514;18.920;2022-09-09T16:55:27;3.30;;;1.30;;
62535;SDS011;63050;47.514;18.920;2022-09-09T17:00:28;2.70;;;1.00;;
62535;SDS011;63050;47.514;18.920;2022-09-09T17:05:29;5.10;;;1.10;;
62535;SDS011;63050;47.514;18.920;2022-09-09T17:10:30;3.40;;;0.70;;
62535;SDS011;63050;47.514;18.920;2022-09-09T17:15:31;8.30;;;1.20;;
62535;SDS011;63050;47.514;18.920;2022-09-09T17:20:34;6.20;;;1.30;;
62535;SDS011;63050;47.514;18.920;2022-09-09T17:25:36;5.20;;;1.00;;
62535;SDS011;63050;47.514;18.920;2022-09-09T17:30:38;6.00;;;1.20;;
62535;SDS011;63050;47.514;18.920;2022-09-09T17:35:43;3.00;;;1.00;;
62535;SDS011;63050;47.514;18.920;2022-09-09T17:40:44;4.00;;;0.80;;
62535;SDS011;63050;47.514;18.920;2022-09-09T17:45:45;6.30;;;0.90;;
62535;SDS011;63050;47.514;18.920;2022-09-09T17:50:46;5.70;;;0.90;;
62535;SDS011;63050;47.514;18.920;2022-09-09T17:55:48;5.50;;;0.80;;
62535;SDS011;63050;47.514;18.920;2022-09-09T18:00:49;5.40;;;0.80;;
62535;SDS011;63050;47.514;18.920;2022-09-09T18:05:50;3.50;;;1.00;;
62535;SDS011;63050;47.514;18.920;2022-09-09T18:10:52;5.30;;;1.10;;
62535;SDS011;63050;47.514;18.920;2022-09-09T18:15:55;3.50;;;1.10;;
62535;SDS011;63050;47.514;18.920;2022-09-09T18:20:57;1.90;;;0.80;;
62535;SDS011;63050;47.514;18.920;2022-09-09T18:26:05;3.60;;;0.90;;
62535;SDS011;63050;47.514;18.920;2022-09-09T18:31:12;5.70;;;1.00;;
62535;SDS011;63050;47.514;18.920;2022-09-09T18:36:15;3.20;;;0.80;;
62535;SDS011;63050;47.514;18.920;2022-09-09T18:46:29;2.20;;;0.80;;
62535;SDS011;63050;47.514;18.920;2022-09-09T18:51:31;3.80;;;1.00;;
62535;SDS011;63050;47.514;18.920;2022-09-09T18:56:36;3.30;;;0.80;;
62535;SDS011;63050;47.514;18.920;2022-09-09T19:01:37;4.10;;;0.90;;
62535;SDS011;63050;47.514;18.920;2022-09-09T19:06:39;1.80;;;0.80;;
62535;SDS011;63050;47.514;18.920;2022-09-09T19:11:42;3.40;;;1.20;;
62535;SDS011;63050;47.514;18.920;2022-09-09T19:16:43;5.30;;;1.20;;
62535;SDS011;63050;47.514;18.920;2022-09-09T19:21:45;5.40;;;1.80;;
62535;SDS011;63050;47.514;18.920;2022-09-09T19:26:47;4.00;;;1.50;;
62535;SDS011;63050;47.514;18.920;2022-09-09T19:31:52;6.70;;;1.30;;
62535;SDS011;63050;47.514;18.920;2022-09-09T19:36:57;7.40;;;1.10;;
62535;SDS011;63050;47.514;18.920;2022-09-09T19:41:59;2.30;;;0.80;;
62535;SDS011;63050;47.514;18.920;2022-09-09T19:47:01;4.10;;;1.90;;
62535;SDS011;63050;47.514;18.920;2022-09-09T19:52:02;2.40;;;1.00;;
62535;SDS011;63050;47.514;18.920;2022-09-09T19:57:03;2.60;;;0.80;;
62535;SDS011;63050;47.514;18.920;2022-09-09T20:02:07;1.80;;;0.80;;
62535;SDS011;63050;47.514;18.920;2022-09-09T20:07:10;2.80;;;0.80;;
62535;SDS011;63050;47.514;18.920;2022-09-09T20:12:10;4.80;;;0.80;;
62535;SDS011;63050;47.514;18.920;2022-09-09T20:17:11;2.60;;;0.90;;
62535;SDS011;63050;47.514;18.920;2022-09-09T20:22:12;4.10;;;1.10;;
62535;SDS011;63050;47.514;18.920;2022-09-09T20:27:13;2.50;;;1.80;;
62535;SDS011;63050;47.514;18.920;2022-09-09T20:32:14;1.50;;;0.70;;
62535;SDS011;63050;47.514;18.920;2022-09-09T20:37:15;2.10;;;0.80;;
62535;SDS011;63050;47.514;18.920;2022-09-09T20:42:17;2.10;;;1.00;;
62535;SDS011;63050;47.514;18.920;2022-09-09T20:47:18;4.50;;;1.40;;
62535;SDS011;63050;47.514;18.920;2022-09-09T20:52:19;2.20;;;1.00;;
62535;SDS011;63050;47.514;18.920;2022-09-09T20:57:22;3.20;;;1.40;;
62535;SDS011;63050;47.514;18.920;2022-09-09T21:02:23;3.70;;;1.50;;
62535;SDS011;63050;47.514;18.920;2022-09-09T21:07:25;7.20;;;3.90;;
62535;SDS011;63050;47.514;18.920;2022-09-09T21:12:26;4.10;;;2.80;;
62535;SDS011;63050;47.514;18.920;2022-09-09T21:17:27;4.00;;;2.90;;
62535;SDS011;63050;47.514;18.920;2022-09-09T21:22:28;3.80;;;2.90;;
62535;SDS011;63050;47.514;18.920;2022-09-09T21:27:29;3.90;;;2.50;;
62535;SDS011;63050;47.514;18.920;2022-09-09T21:32:30;4.90;;;2.60;;
62535;SDS011;63050;47.514;18.920;2022-09-09T21:37:32;3.60;;;2.40;;
62535;SDS011;63050;47.514;18.920;2022-09-09T21:42:33;5.00;;;2.80;;
62535;SDS011;63050;47.514;18.920;2022-09-09T21:47:34;4.80;;;3.20;;
62535;SDS011;63050;47.514;18.920;2022-09-09T21:52:35;4.30;;;3.10;;
62535;SDS011;63050;47.514;18.920;2022-09-09T21:57:36;4.00;;;2.90;;
62535;SDS011;63050;47.514;18.920;2022-09-09T22:02:37;6.30;;;3.50;;
62535;SDS011;63050;47.514;18.920;2022-09-09T22:07:38;7.10;;;3.10;;
62535;SDS011;63050;47.514;18.920;2022-09-09T22:12:40;4.30;;;3.10;;
62535;SDS011;63050;47.514;18.920;2022-09-09T22:17:41;6.40;;;3.00;;
62535;SDS011;63050;47.514;18.920;2022-09-09T22:22:42;5.30;;;3.30;;
62535;SDS011;63050;47.514;18.920;2022-09-09T22:27:43;5.10;;;3.60;;
62535;SDS011;63050;47.514;18.920;2022-09-09T22:32:43;5.40;;;3.50;;
62535;SDS011;63050;47.514;18.920;2022-09-09T22:37:45;4.60;;;3.70;;
62535;SDS011;63050;47.514;18.920;2022-09-09T22:42:46;5.60;;;3.30;;
62535;SDS011;63050;47.514;18.920;2022-09-09T22:47:47;5.90;;;3.30;;
62535;SDS011;63050;47.514;18.920;2022-09-09T22:52:48;4.90;;;3.40;;
62535;SDS011;63050;47.514;18.920;2022-09-09T22:57:49;4.60;;;3.30;;
62535;SDS011;63050;47.514;18.920;2022-09-09T23:02:50;7.10;;;3.70;;
62535;SDS011;63050;47.514;18.920;2022-09-09T23:07:52;6.20;;;3.90;;
62535;SDS011;63050;47.514;18.920;2022-09-09T23:12:57;5.50;;;3.80;;
62535;SDS011;63050;47.514;18.920;2022-09-09T23:17:58;4.50;;;4.10;;
62535;SDS011;63050;47.514;18.920;2022-09-09T23:22:59;5.20;;;3.70;;
62535;SDS011;63050;47.514;18.920;2022-09-09T23:28:00;7.60;;;4.20;;
62535;SDS011;63050;47.514;18.920;2022-09-09T23:33:01;4.40;;;3.50;;
62535;SDS011;63050;47.514;18.920;2022-09-09T23:38:02;5.00;;;4.10;;
62535;SDS011;63050;47.514;18.920;2022-09-09T23:43:03;5.20;;;4.20;;
62535;SDS011;63050;47.514;18.920;2022-09-09T23:48:05;5.10;;;3.70;;
62535;SDS011;63050;47.514;18.920;2022-09-09T23:53:06;4.30;;;3.90;;
62535;SDS011;63050;47.514;18.920;2022-09-09T23:58:08;5.80;;;4.20;;
